Time;durP1;ratioP1;P1;durP2;ratioP2;P2;SDS_P1;SDS_P2;PMS_P1;PMS_P2;Temp;Humidity;BMP_temperature;BMP_pressure;BME280_temperature;BME280_humidity;BME280_pressure;Samples;Min_cycle;Max_cycle;Signal;HPM_P1;HPM_P2
2024/04/26 00:01:14;;;;;;;5.57;2.70;;;11.10;58.80;;;;;;5525421;25;21015;-57
2024/04/26 00:03:44;;;;;;;5.37;2.80;;;11.10;58.80;;;;;;5525551;25;20497;-57
2024/04/26 00:06:15;;;;;;;3.97;2.10;;;11.10;58.70;;;;;;5525600;25;20793;-57
2024/04/26 00:08:44;;;;;;;4.67;2.43;;;11.00;58.60;;;;;;5525522;25;20459;-57
2024/04/26 00:11:13;;;;;;;6.03;2.20;;;11.00;59.00;;;;;;5527478;25;20469;-56
2024/04/26 00:13:42;;;;;;;7.07;2.90;;;11.00;59.40;;;;;;5529142;25;20495;-56
2024/04/26 00:16:10;;;;;;;4.70;3.57;;;11.00;59.80;;;;;;5528779;25;20502;-56
2024/04/26 00:18:39;;;;;;;3.73;2.47;;;11.10;60.10;;;;;;5528701;25;20496;-57
2024/04/26 00:21:07;;;;;;;3.90;2.50;;;11.10;60.30;;;;;;5529469;25;20854;-57
2024/04/26 00:23:40;;;;;;;4.70;2.90;;;11.10;60.70;;;;;;5529175;25;20449;-58
2024/04/26 00:26:10;;;;;;;5.77;2.63;;;11.00;60.80;;;;;;5528951;25;20469;-56
2024/04/26 00:28:38;;;;;;;4.90;2.43;;;11.10;61.50;;;;;;5528980;25;20438;-59
2024/04/26 00:31:07;;;;;;;4.30;2.70;;;11.10;62.00;;;;;;5528928;25;20469;-56
2024/04/26 00:33:38;;;;;;;6.70;2.87;;;11.00;61.80;;;;;;5529153;25;20885;-57
2024/04/26 00:36:07;;;;;;;5.27;2.47;;;11.00;61.80;;;;;;5528822;25;20450;-57
2024/04/26 00:38:35;;;;;;;2.40;2.03;;;11.00;61.90;;;;;;5528937;25;20458;-56
2024/04/26 00:41:06;;;;;;;5.87;2.63;;;10.90;62.40;;;;;;5528197;25;20557;-56
2024/04/26 00:43:35;;;;;;;2.57;2.23;;;10.90;62.50;;;;;;5529057;25;21088;-58
2024/04/26 00:46:04;;;;;;;4.07;2.97;;;10.90;62.20;;;;;;5528726;25;20502;-57
2024/04/26 00:48:33;;;;;;;7.30;2.80;;;10.90;62.30;;;;;;5528663;25;20490;-56
2024/04/26 00:51:01;;;;;;;4.20;2.80;;;10.90;62.30;;;;;;5528575;25;20450;-57
2024/04/26 00:53:30;;;;;;;5.90;3.13;;;10.90;61.80;;;;;;5528656;25;20559;-56
2024/04/26 00:55:58;;;;;;;11.40;2.90;;;10.90;61.70;;;;;;5528245;25;20505;-56
2024/04/26 00:58:30;;;;;;;5.93;2.53;;;10.80;62.50;;;;;;5528821;25;20572;-56
2024/04/26 01:00:59;;;;;;;2.87;2.13;;;10.90;61.60;;;;;;5527789;25;20449;-56
2024/04/26 01:03:27;;;;;;;5.20;2.20;;;10.90;61.40;;;;;;5527873;25;20457;-56
2024/04/26 01:05:56;;;;;;;5.50;1.90;;;10.80;59.90;;;;;;5528466;25;20496;-56
2024/04/26 01:08:24;;;;;;;4.23;2.17;;;10.80;59.80;;;;;;5528674;25;20571;-56
2024/04/26 01:10:53;;;;;;;7.10;2.93;;;10.80;60.00;;;;;;5527430;25;20445;-58
2024/04/26 01:13:23;;;;;;;5.63;2.70;;;10.80;59.30;;;;;;5528257;25;20466;-56
2024/04/26 01:15:54;;;;;;;7.67;3.20;;;10.80;59.50;;;;;;5527533;25;20450;-57
2024/04/26 01:18:23;;;;;;;8.00;3.30;;;10.80;59.90;;;;;;5528353;25;20453;-58
2024/04/26 01:20:51;;;;;;;3.50;2.83;;;10.80;59.90;;;;;;5526576;25;20983;-57
2024/04/26 01:23:20;;;;;;;4.23;2.40;;;10.80;61.00;;;;;;5527841;25;20490;-57
2024/04/26 01:25:58;;;;;;;4.50;2.30;;;10.80;60.90;;;;;;5527016;25;20462;-57
2024/04/26 01:28:27;;;;;;;6.23;2.70;;;10.80;61.50;;;;;;5528481;25;20446;-56
2024/04/26 01:30:55;;;;;;;6.40;2.90;;;10.80;62.10;;;;;;5527781;25;20521;-57
2024/04/26 01:33:24;;;;;;;3.53;2.47;;;10.80;61.30;;;;;;5528171;25;20536;-56
2024/04/26 01:35:52;;;;;;;7.00;3.03;;;10.80;61.70;;;;;;5527692;25;20862;-57
2024/04/26 01:38:21;;;;;;;6.07;2.90;;;10.80;62.30;;;;;;5528057;25;20540;-56
2024/04/26 01:40:49;;;;;;;7.60;2.70;;;10.80;62.80;;;;;;5527286;25;20446;-57
2024/04/26 01:43:21;;;;;;;3.73;2.30;;;10.80;63.00;;;;;;5527645;25;20918;-56
2024/04/26 01:45:49;;;;;;;11.97;2.80;;;10.80;63.20;;;;;;5527351;25;20450;-57
2024/04/26 01:48:18;;;;;;;4.53;2.70;;;10.80;63.20;;;;;;5527843;25;20562;-56
2024/04/26 01:50:46;;;;;;;7.23;3.10;;;10.80;63.20;;;;;;5527299;25;20584;-57
2024/04/26 01:53:15;;;;;;;4.10;2.70;;;10.80;63.50;;;;;;5527511;25;20458;-56
2024/04/26 01:55:41;;;;;;;6.90;2.73;;;10.80;63.90;;;;;;5527141;25;20502;-57
2024/04/26 01:58:09;;;;;;;10.90;5.50;;;10.80;63.60;;;;;;5527665;25;20455;-56
2024/04/26 02:00:38;;;;;;;5.80;3.03;;;10.80;63.40;;;;;;5527132;25;20571;-56
2024/04/26 02:03:06;;;;;;;4.50;2.70;;;10.80;63.50;;;;;;5527519;25;20506;-56
2024/04/26 02:05:32;;;;;;;10.97;3.27;;;10.70;64.10;;;;;;5527307;25;20546;-55
2024/04/26 02:08:01;;;;;;;3.20;2.30;;;10.70;63.60;;;;;;5527210;25;20473;-55
2024/04/26 02:10:27;;;;;;;4.20;2.90;;;10.70;63.70;;;;;;5526276;25;20320;-56
2024/04/26 02:12:56;;;;;;;20.00;4.73;;;10.70;64.20;;;;;;5527065;25;21023;-56
2024/04/26 02:15:22;;;;;;;5.33;2.70;;;10.70;64.30;;;;;;5527012;25;20225;-55
2024/04/26 02:17:53;;;;;;;3.30;2.40;;;10.70;64.40;;;;;;5526807;25;20502;-55
2024/04/26 02:20:21;;;;;;;7.27;3.30;;;10.70;64.50;;;;;;5527133;25;20256;-55
2024/04/26 02:22:49;;;;;;;6.83;2.87;;;10.70;64.60;;;;;;5527068;25;21101;-56
2024/04/26 02:25:18;;;;;;;6.03;2.57;;;10.70;64.20;;;;;;5527565;25;20458;-56
2024/04/26 02:27:44;;;;;;;6.00;2.73;;;10.70;64.50;;;;;;5526554;25;20556;-55
2024/04/26 02:30:12;;;;;;;8.30;3.23;;;10.70;63.90;;;;;;5526818;25;20477;-55
2024/04/26 02:32:41;;;;;;;5.87;3.13;;;10.70;64.60;;;;;;5525365;25;20225;-55
2024/04/26 02:35:12;;;;;;;6.73;3.30;;;10.70;64.80;;;;;;5526808;25;20454;-55
2024/04/26 02:37:41;;;;;;;4.70;2.43;;;10.70;65.20;;;;;;5526831;25;21003;-56
2024/04/26 02:40:10;;;;;;;10.83;3.37;;;10.70;64.70;;;;;;5527245;25;20540;-56
2024/04/26 02:42:39;;;;;;;5.33;3.37;;;10.70;65.50;;;;;;5526761;25;20474;-56
2024/04/26 02:45:08;;;;;;;7.00;2.87;;;10.70;66.10;;;;;;5526064;25;20938;-55
2024/04/26 02:47:36;;;;;;;10.47;3.93;;;10.70;65.80;;;;;;5527015;25;20449;-56
2024/04/26 02:50:05;;;;;;;6.93;2.70;;;10.70;66.00;;;;;;5526336;25;21043;-55
2024/04/26 02:52:36;;;;;;;10.93;2.67;;;10.70;66.10;;;;;;5526551;25;20571;-55
2024/04/26 02:55:05;;;;;;;7.37;3.63;;;10.70;66.10;;;;;;5526740;25;20935;-55
2024/04/26 02:57:34;;;;;;;8.80;2.93;;;10.70;66.20;;;;;;5526254;25;20536;-55
2024/04/26 03:00:02;;;;;;;8.50;3.40;;;10.60;66.10;;;;;;5526454;25;20559;-55
2024/04/26 03:02:30;;;;;;;7.30;2.90;;;10.70;66.50;;;;;;5526401;25;20466;-56
2024/04/26 03:04:59;;;;;;;5.73;2.93;;;10.70;66.70;;;;;;5525873;25;20808;-56
2024/04/26 03:07:29;;;;;;;15.00;4.67;;;10.70;67.00;;;;;;5526913;25;20564;-55
2024/04/26 03:10:00;;;;;;;9.53;3.03;;;10.60;67.40;;;;;;5526510;25;20852;-55
2024/04/26 03:12:28;;;;;;;5.87;3.03;;;10.60;67.50;;;;;;5525935;25;20995;-56
2024/04/26 03:14:58;;;;;;;6.30;2.90;;;10.60;67.60;;;;;;5525528;25;20557;-55
2024/04/26 03:17:26;;;;;;;8.13;2.97;;;10.60;67.80;;;;;;5525894;25;20446;-55
2024/04/26 03:19:55;;;;;;;5.80;3.40;;;10.60;67.70;;;;;;5526412;25;20458;-56
2024/04/26 03:22:23;;;;;;;11.00;3.70;;;10.50;67.70;;;;;;5526438;25;20872;-56
2024/04/26 03:24:52;;;;;;;6.33;3.13;;;10.50;68.10;;;;;;5525902;25;20502;-55
2024/04/26 03:27:23;;;;;;;3.83;2.97;;;10.50;68.30;;;;;;5526098;25;20446;-56
2024/04/26 03:29:52;;;;;;;7.73;3.97;;;10.50;68.30;;;;;;5526093;25;20999;-55
2024/04/26 03:32:20;;;;;;;8.53;4.57;;;10.50;68.60;;;;;;5526113;25;20877;-55
2024/04/26 03:34:46;;;;;;;8.37;3.57;;;10.50;68.60;;;;;;5525628;25;20571;-55
2024/04/26 03:37:14;;;;;;;7.57;3.03;;;10.50;68.90;;;;;;5526285;25;20864;-55
2024/04/26 03:39:43;;;;;;;6.33;3.80;;;10.60;69.00;;;;;;5526068;26;20239;-55
2024/04/26 03:42:11;;;;;;;6.00;3.57;;;10.50;68.70;;;;;;5525496;25;21007;-55
2024/04/26 03:44:42;;;;;;;7.00;2.83;;;10.50;68.80;;;;;;5525519;25;20555;-55
2024/04/26 03:47:11;;;;;;;9.47;4.57;;;10.50;69.10;;;;;;5525556;25;20498;-55
2024/04/26 03:49:37;;;;;;;8.73;4.10;;;10.50;69.30;;;;;;5526058;25;20455;-55
2024/04/26 03:52:06;;;;;;;7.70;4.40;;;10.50;69.40;;;;;;5525427;25;20510;-56
2024/04/26 03:54:34;;;;;;;6.20;3.70;;;10.50;69.60;;;;;;5526095;25;20329;-56
2024/04/26 03:57:02;;;;;;;8.50;4.00;;;10.50;69.60;;;;;;5525514;25;20893;-56
2024/04/26 03:59:31;;;;;;;6.23;3.70;;;10.50;70.50;;;;;;5525250;25;20499;-55
2024/04/26 04:02:02;;;;;;;7.47;3.50;;;10.50;69.80;;;;;;5525072;25;20458;-55
2024/04/26 04:04:30;;;;;;;8.17;3.40;;;10.50;69.70;;;;;;5525409;25;20498;-55
2024/04/26 04:06:59;;;;;;;4.60;3.20;;;10.50;69.90;;;;;;5524798;25;20450;-56
2024/04/26 04:09:28;;;;;;;5.07;3.80;;;10.50;70.50;;;;;;5525325;25;20552;-55
2024/04/26 04:11:56;;;;;;;8.60;4.43;;;10.50;70.90;;;;;;5524620;25;20462;-55
2024/04/26 04:14:25;;;;;;;6.80;3.90;;;10.40;70.80;;;;;;5524987;25;20493;-56
2024/04/26 04:16:53;;;;;;;7.00;3.63;;;10.50;71.10;;;;;;5524522;25;20551;-55
2024/04/26 04:19:24;;;;;;;6.20;3.30;;;10.50;71.20;;;;;;5525612;25;20442;-56
2024/04/26 04:21:52;;;;;;;7.27;3.60;;;10.50;71.50;;;;;;5524580;25;20556;-55
2024/04/26 04:24:21;;;;;;;5.73;3.80;;;10.50;71.80;;;;;;5525053;25;20580;-55
2024/04/26 04:26:49;;;;;;;6.10;3.33;;;10.50;71.80;;;;;;5524341;25;20469;-55
2024/04/26 04:29:18;;;;;;;7.37;3.67;;;10.50;71.80;;;;;;5524717;25;20983;-55
2024/04/26 04:31:46;;;;;;;6.50;3.63;;;10.50;71.80;;;;;;5525189;25;20591;-55
2024/04/26 04:34:15;;;;;;;9.83;4.10;;;10.60;71.90;;;;;;5525475;25;20556;-56
2024/04/26 04:36:46;;;;;;;8.50;3.57;;;10.60;71.90;;;;;;5525142;25;20588;-55
2024/04/26 04:39:14;;;;;;;15.23;4.37;;;10.60;72.00;;;;;;5525032;25;20454;-55
2024/04/26 04:41:42;;;;;;;11.00;4.80;;;10.60;72.00;;;;;;5525130;25;20873;-55
2024/04/26 04:44:11;;;;;;;11.10;4.80;;;10.50;71.90;;;;;;5525030;25;20952;-55
2024/04/26 04:46:40;;;;;;;13.80;5.10;;;10.50;72.00;;;;;;5524803;25;20454;-55
2024/04/26 04:49:08;;;;;;;13.17;4.37;;;10.50;72.40;;;;;;5524947;25;20446;-55
2024/04/26 04:51:36;;;;;;;17.87;4.70;;;10.50;72.90;;;;;;5524899;25;20477;-55
2024/04/26 04:54:07;;;;;;;12.83;4.90;;;10.50;73.10;;;;;;5524903;25;20450;-55
2024/04/26 04:56:36;;;;;;;10.37;4.93;;;10.60;73.20;;;;;;5525879;25;20446;-55
2024/04/26 04:59:04;;;;;;;14.03;4.90;;;10.60;73.00;;;;;;5528995;25;20575;-56
2024/04/26 05:01:33;;;;;;;16.83;4.57;;;10.60;73.30;;;;;;5528230;25;20466;-56
2024/04/26 05:04:01;;;;;;;12.13;4.77;;;10.60;73.50;;;;;;5528572;25;20567;-56
2024/04/26 05:06:30;;;;;;;14.90;5.17;;;10.50;73.40;;;;;;5528543;25;20558;-56
2024/04/26 05:08:58;;;;;;;7.17;5.20;;;10.60;73.60;;;;;;5528441;25;20995;-56
2024/04/26 05:11:29;;;;;;;11.07;4.40;;;10.60;73.80;;;;;;5528126;25;20462;-56
2024/04/26 05:13:57;;;;;;;13.67;5.03;;;10.60;73.90;;;;;;5528789;25;20497;-56
2024/04/26 05:16:26;;;;;;;12.30;4.57;;;10.60;74.10;;;;;;5527989;25;20835;-56
2024/04/26 05:18:55;;;;;;;8.63;4.33;;;10.60;74.10;;;;;;5527839;26;20539;-56
2024/04/26 05:21:24;;;;;;;8.93;4.83;;;10.70;74.50;;;;;;5528220;25;20559;-56
2024/04/26 05:23:52;;;;;;;11.63;3.67;;;10.70;74.10;;;;;;5527804;25;20849;-55
2024/04/26 05:26:21;;;;;;;6.03;4.03;;;10.70;74.10;;;;;;5528448;25;20547;-56
2024/04/26 05:28:52;;;;;;;8.40;4.30;;;10.70;74.00;;;;;;5527919;25;20446;-56
2024/04/26 05:31:21;;;;;;;11.13;4.70;;;10.80;73.80;;;;;;5527855;25;20457;-55
2024/04/26 05:33:49;;;;;;;8.27;4.10;;;10.80;74.00;;;;;;5527678;25;20461;-55
2024/04/26 05:36:18;;;;;;;6.47;3.93;;;10.90;74.20;;;;;;5527533;25;20477;-56
2024/04/26 05:38:46;;;;;;;9.70;4.40;;;10.90;74.20;;;;;;5527714;25;20469;-56
2024/04/26 05:41:15;;;;;;;7.13;4.10;;;11.00;74.70;;;;;;5527120;25;20485;-55
2024/04/26 05:43:43;;;;;;;6.37;4.53;;;11.00;74.60;;;;;;5527993;25;20501;-56
2024/04/26 05:46:14;;;;;;;7.27;4.00;;;11.00;74.60;;;;;;5527538;25;20920;-55
2024/04/26 05:48:40;;;;;;;8.93;3.90;;;11.10;74.70;;;;;;5528165;25;21003;-56
2024/04/26 05:51:13;;;;;;;6.77;3.87;;;11.10;74.80;;;;;;5527439;25;20446;-55
2024/04/26 05:53:42;;;;;;;10.83;5.20;;;11.00;75.00;;;;;;5528082;25;20714;-56
2024/04/26 05:56:11;;;;;;;5.90;3.80;;;11.00;75.00;;;;;;5527891;25;20446;-56
2024/04/26 05:58:39;;;;;;;7.43;4.67;;;11.00;75.30;;;;;;5527560;25;20458;-56
2024/04/26 06:01:08;;;;;;;6.53;4.63;;;11.10;75.50;;;;;;5527256;25;20446;-56
2024/04/26 06:03:39;;;;;;;8.63;4.00;;;11.10;75.70;;;;;;5527783;25;20445;-56
2024/04/26 06:06:09;;;;;;;6.83;4.50;;;11.10;76.20;;;;;;5527716;25;20450;-55
2024/04/26 06:08:38;;;;;;;8.87;4.40;;;11.10;76.50;;;;;;5527915;25;20452;-56
2024/04/26 06:11:06;;;;;;;7.13;4.80;;;11.20;76.60;;;;;;5526941;25;20450;-57
2024/04/26 06:13:35;;;;;;;11.40;4.07;;;11.20;77.10;;;;;;5526917;25;20454;-56
2024/04/26 06:16:06;;;;;;;7.73;4.60;;;11.20;77.10;;;;;;5527357;25;20562;-56
2024/04/26 06:18:35;;;;;;;9.53;5.20;;;11.30;77.20;;;;;;5527398;25;20446;-56
2024/04/26 06:21:06;;;;;;;7.90;4.03;;;11.30;77.30;;;;;;5527436;25;20505;-56
2024/04/26 06:23:34;;;;;;;9.70;4.70;;;11.30;77.20;;;;;;5525841;25;20506;-55
2024/04/26 06:26:03;;;;;;;5.60;3.90;;;11.40;76.80;;;;;;5527351;25;21112;-55
2024/04/26 06:28:31;;;;;;;10.40;4.80;;;11.40;76.70;;;;;;5527573;25;20454;-55
2024/04/26 06:31:00;;;;;;;5.70;3.77;;;11.50;76.60;;;;;;5526629;25;20485;-56
2024/04/26 06:33:28;;;;;;;9.27;4.00;;;11.60;76.60;;;;;;5526391;25;20498;-55
2024/04/26 06:35:56;;;;;;;11.00;4.20;;;11.70;76.70;;;;;;5526482;25;20532;-56
2024/04/26 06:38:27;;;;;;;32.13;5.93;;;11.80;76.70;;;;;;5527163;25;20458;-56
2024/04/26 06:40:56;;;;;;;11.83;4.27;;;11.80;76.50;;;;;;5526509;25;20495;-56
2024/04/26 06:43:25;;;;;;;7.13;3.93;;;11.90;76.90;;;;;;5527433;25;20459;-56
2024/04/26 06:45:53;;;;;;;8.83;4.07;;;12.10;76.40;;;;;;5526973;25;20466;-56
2024/04/26 06:48:23;;;;;;;8.80;4.10;;;12.20;75.20;;;;;;5526760;25;20540;-56
2024/04/26 06:50:52;;;;;;;6.80;4.10;;;12.20;74.60;;;;;;5526345;25;20494;-57
2024/04/26 06:53:20;;;;;;;7.03;3.93;;;12.30;73.10;;;;;;5526720;25;20498;-56
2024/04/26 06:55:51;;;;;;;6.87;3.40;;;12.30;72.10;;;;;;5526587;25;20517;-56
2024/04/26 06:58:19;;;;;;;4.83;3.90;;;12.40;71.30;;;;;;5527073;25;20996;-56
2024/04/26 07:00:48;;;;;;;7.97;4.20;;;12.40;71.50;;;;;;5526537;25;20560;-56
2024/04/26 07:03:18;;;;;;;8.43;4.30;;;12.50;70.80;;;;;;5526113;25;20567;-56
2024/04/26 07:05:46;;;;;;;9.70;4.93;;;12.60;70.40;;;;;;5526972;25;20508;-56
2024/04/26 07:08:15;;;;;;;7.60;3.97;;;12.70;70.30;;;;;;5526948;25;20867;-56
2024/04/26 07:10:44;;;;;;;9.13;3.70;;;12.80;70.10;;;;;;5525940;25;20442;-56
2024/04/26 07:13:15;;;;;;;8.87;4.13;;;12.90;70.10;;;;;;5526417;25;20474;-56
2024/04/26 07:15:44;;;;;;;7.73;3.80;;;13.10;69.40;;;;;;5525872;25;21092;-56
2024/04/26 07:18:12;;;;;;;4.50;4.00;;;13.30;69.80;;;;;;5525909;25;20442;-56
2024/04/26 07:20:41;;;;;;;9.40;4.17;;;13.40;68.40;;;;;;5525709;25;20498;-56
2024/04/26 07:23:10;;;;;;;9.27;3.60;;;13.60;67.70;;;;;;5526328;25;20544;-57
2024/04/26 07:25:38;;;;;;;8.47;3.77;;;13.80;67.00;;;;;;5525887;25;20450;-56
2024/04/26 07:28:09;;;;;;;5.80;3.97;;;13.90;66.80;;;;;;5525987;25;20542;-56
2024/04/26 07:30:41;;;;;;;7.90;4.30;;;14.00;66.00;;;;;;5525049;25;20540;-56
2024/04/26 07:33:10;;;;;;;7.97;3.50;;;14.00;65.70;;;;;;5525796;25;20455;-56
2024/04/26 07:35:38;;;;;;;6.40;4.33;;;13.90;66.40;;;;;;5526188;25;20868;-56
2024/04/26 07:38:08;;;;;;;9.03;4.03;;;13.90;66.10;;;;;;5525449;25;20479;-56
2024/04/26 07:40:37;;;;;;;8.30;4.37;;;13.80;65.90;;;;;;5525441;25;20558;-56
2024/04/26 07:43:05;;;;;;;8.83;4.00;;;13.80;66.40;;;;;;5525267;25;20912;-56
2024/04/26 07:45:34;;;;;;;13.13;6.40;;;13.70;66.80;;;;;;5525922;25;21027;-56
2024/04/26 07:48:05;;;;;;;7.40;4.87;;;13.70;66.50;;;;;;5525199;25;20450;-56
2024/04/26 07:50:34;;;;;;;7.83;4.73;;;13.70;67.30;;;;;;5525982;25;21089;-56
2024/04/26 07:53:02;;;;;;;8.83;5.63;;;13.70;67.20;;;;;;5525452;25;20866;-56
2024/04/26 07:55:31;;;;;;;12.90;5.10;;;13.70;66.40;;;;;;5525160;25;20554;-57
2024/04/26 07:57:59;;;;;;;8.50;5.37;;;13.70;66.50;;;;;;5525214;25;20550;-56
2024/04/26 08:00:28;;;;;;;25.33;6.40;;;13.70;66.30;;;;;;5525197;25;20559;-56
2024/04/26 08:02:56;;;;;;;9.27;5.80;;;13.70;66.20;;;;;;5524953;25;20567;-56
2024/04/26 08:05:27;;;;;;;15.60;5.73;;;13.80;65.70;;;;;;5524881;25;20494;-56
2024/04/26 08:07:56;;;;;;;8.70;5.43;;;13.90;67.20;;;;;;5526216;25;20517;-57
2024/04/26 08:10:24;;;;;;;6.60;4.03;;;13.90;64.80;;;;;;5527504;25;20536;-57
2024/04/26 08:12:53;;;;;;;9.50;4.27;;;14.00;66.30;;;;;;5526831;25;20567;-57
2024/04/26 08:15:22;;;;;;;6.50;4.70;;;14.00;66.60;;;;;;5525131;25;20620;-56
2024/04/26 08:17:51;;;;;;;14.10;4.97;;;13.90;67.10;;;;;;5524894;25;20446;-56
2024/04/26 08:20:19;;;;;;;8.73;4.80;;;13.80;68.40;;;;;;5524760;25;20534;-57
2024/04/26 08:22:50;;;;;;;11.00;5.23;;;13.70;68.40;;;;;;5524239;25;21124;-57
2024/04/26 08:25:19;;;;;;;7.50;4.87;;;13.60;70.60;;;;;;5524119;25;20450;-57
2024/04/26 08:27:48;;;;;;;7.30;5.77;;;13.50;71.80;;;;;;5524838;25;20462;-57
2024/04/26 08:30:17;;;;;;;9.83;5.40;;;13.50;71.40;;;;;;5524149;25;20509;-57
2024/04/26 08:32:45;;;;;;;8.93;5.67;;;13.40;71.80;;;;;;5527573;25;20560;-57
2024/04/26 08:35:14;;;;;;;8.27;5.33;;;13.50;72.30;;;;;;5528758;26;20449;-57
2024/04/26 08:37:42;;;;;;;9.60;5.33;;;13.50;71.30;;;;;;5528446;25;20454;-57
2024/04/26 08:40:14;;;;;;;10.93;5.90;;;13.40;71.40;;;;;;5527882;25;21022;-57
2024/04/26 08:42:44;;;;;;;7.87;5.83;;;13.40;72.20;;;;;;5527914;25;20552;-57
2024/04/26 08:45:14;;;;;;;9.03;5.30;;;13.40;72.90;;;;;;5528250;25;21109;-56
2024/04/26 08:47:44;;;;;;;10.80;6.10;;;13.50;71.30;;;;;;5527027;25;20567;-56
2024/04/26 08:50:12;;;;;;;9.00;5.37;;;13.70;72.00;;;;;;5527828;25;20450;-55
2024/04/26 08:52:42;;;;;;;10.20;5.53;;;13.90;71.00;;;;;;5528107;25;20475;-55
2024/04/26 08:55:10;;;;;;;7.07;5.10;;;14.10;71.60;;;;;;5527767;25;20454;-55
2024/04/26 08:57:45;;;;;;;9.70;5.70;;;14.20;69.60;;;;;;5526490;25;20992;-55
2024/04/26 09:00:14;;;;;;;5.73;4.90;;;14.30;68.90;;;;;;5528184;25;20449;-57
2024/04/26 09:02:43;;;;;;;6.80;5.00;;;14.40;66.80;;;;;;5527176;25;20522;-56
2024/04/26 09:05:14;;;;;;;11.60;5.47;;;14.40;66.60;;;;;;5527310;25;21100;-56
2024/04/26 09:07:43;;;;;;;8.87;5.47;;;14.50;66.30;;;;;;5527540;25;20506;-56
2024/04/26 09:10:13;;;;;;;8.27;5.30;;;14.50;68.10;;;;;;5527449;25;20450;-56
2024/04/26 09:12:46;;;;;;;10.33;6.13;;;14.50;68.40;;;;;;5527688;25;20466;-56
2024/04/26 09:15:15;;;;;;;7.87;5.40;;;14.40;67.60;;;;;;5527001;25;20588;-56
2024/04/26 09:17:44;;;;;;;10.60;5.90;;;14.50;68.20;;;;;;5527333;25;20571;-56
2024/04/26 09:20:13;;;;;;;10.47;5.57;;;14.40;67.70;;;;;;5526877;25;20458;-56
2024/04/26 09:22:43;;;;;;;8.07;5.20;;;14.30;67.70;;;;;;5527868;25;20506;-56
2024/04/26 09:25:11;;;;;;;7.67;5.47;;;14.20;68.40;;;;;;5526761;25;20505;-56
2024/04/26 09:27:40;;;;;;;10.07;5.67;;;14.10;69.40;;;;;;5526890;25;20450;-56
2024/04/26 09:30:12;;;;;;;11.63;6.33;;;14.00;68.60;;;;;;5527826;25;20445;-56
2024/04/26 09:32:40;;;;;;;9.50;5.80;;;14.10;70.10;;;;;;5527521;25;20579;-56
2024/04/26 09:35:09;;;;;;;12.00;5.70;;;14.00;69.10;;;;;;5527471;25;20573;-55
2024/04/26 09:37:43;;;;;;;10.83;5.93;;;14.00;68.90;;;;;;5526980;25;20457;-55
2024/04/26 09:40:11;;;;;;;10.10;6.27;;;14.00;69.70;;;;;;5527363;25;20540;-55
2024/04/26 09:42:41;;;;;;;10.00;5.57;;;14.00;70.20;;;;;;5527130;25;20507;-56
2024/04/26 09:45:13;;;;;;;7.07;6.00;;;13.90;70.50;;;;;;5526764;25;20563;-56
2024/04/26 09:47:45;;;;;;;6.47;5.47;;;13.90;71.00;;;;;;5527809;25;20442;-55
2024/04/26 09:50:14;;;;;;;15.70;6.07;;;13.90;71.00;;;;;;5527456;25;20454;-56
2024/04/26 09:52:45;;;;;;;9.60;6.30;;;13.90;70.20;;;;;;5527505;25;20469;-56
2024/04/26 09:55:15;;;;;;;11.10;7.33;;;13.90;71.60;;;;;;5527605;25;20995;-56
2024/04/26 09:57:43;;;;;;;10.53;6.17;;;13.80;71.40;;;;;;5527084;25;20510;-55
2024/04/26 10:00:17;;;;;;;9.00;6.30;;;13.90;71.30;;;;;;5527498;25;20819;-56
2024/04/26 10:02:49;;;;;;;9.13;6.63;;;13.90;72.20;;;;;;5527004;25;20466;-55
2024/04/26 10:05:21;;;;;;;8.43;6.10;;;13.90;73.40;;;;;;5527180;25;20446;-56
2024/04/26 10:07:58;;;;;;;10.17;6.47;;;13.90;73.00;;;;;;5526695;25;20458;-55
2024/04/26 10:10:27;;;;;;;15.63;6.57;;;14.00;72.00;;;;;;5527152;25;20971;-56
2024/04/26 10:13:03;;;;;;;10.87;6.37;;;13.90;72.10;;;;;;5527001;25;20578;-55
2024/04/26 10:15:35;;;;;;;10.53;6.30;;;14.00;71.90;;;;;;5526348;25;20446;-55
2024/04/26 10:18:05;;;;;;;11.17;7.83;;;14.10;72.00;;;;;;5525821;25;20450;-55
2024/04/26 10:20:43;;;;;;;8.40;6.17;;;14.00;72.20;;;;;;5526379;25;20446;-55
2024/04/26 10:23:14;;;;;;;9.23;5.77;;;14.10;73.70;;;;;;5526322;25;20473;-55
2024/04/26 10:25:43;;;;;;;8.10;6.20;;;14.10;72.50;;;;;;5526171;25;20462;-55
2024/04/26 10:28:11;;;;;;;8.40;6.30;;;14.10;73.00;;;;;;5526519;25;20494;-55
2024/04/26 10:30:48;;;;;;;7.10;5.90;;;14.20;72.10;;;;;;5526130;25;20528;-55
2024/04/26 10:33:17;;;;;;;10.80;6.60;;;14.20;71.50;;;;;;5527244;25;20454;-56
2024/04/26 10:35:45;;;;;;;6.93;6.00;;;14.30;72.30;;;;;;5526290;25;20462;-56
2024/04/26 10:38:14;;;;;;;7.37;6.43;;;14.50;74.00;;;;;;5525928;25;20536;-55
2024/04/26 10:40:46;;;;;;;6.17;5.53;;;14.70;74.00;;;;;;5526232;25;20513;-55
2024/04/26 10:43:15;;;;;;;6.60;6.00;;;14.90;72.80;;;;;;5526724;25;20466;-55
2024/04/26 10:45:46;;;;;;;13.10;6.60;;;15.00;73.10;;;;;;5525652;25;20454;-56
2024/04/26 10:48:14;;;;;;;8.90;6.03;;;15.10;71.80;;;;;;5526548;25;20588;-57
2024/04/26 10:50:43;;;;;;;8.50;6.30;;;15.20;71.90;;;;;;5527166;25;20450;-57
2024/04/26 10:53:11;;;;;;;7.90;6.80;;;15.30;72.00;;;;;;5526071;25;20458;-57
2024/04/26 10:55:40;;;;;;;7.40;6.13;;;15.50;72.20;;;;;;5525701;25;20564;-57
2024/04/26 10:58:10;;;;;;;7.17;6.47;;;15.80;71.80;;;;;;5525832;25;20498;-57
2024/04/26 11:00:42;;;;;;;8.73;6.20;;;16.00;69.30;;;;;;5526812;25;20450;-57
2024/04/26 11:03:14;;;;;;;14.13;7.40;;;16.30;68.90;;;;;;5526051;25;20462;-57
2024/04/26 11:05:44;;;;;;;8.20;7.17;;;16.50;66.80;;;;;;5525497;25;21103;-57
2024/04/26 11:08:13;;;;;;;10.10;7.37;;;16.70;66.80;;;;;;5526379;25;20458;-57
2024/04/26 11:10:43;;;;;;;10.60;7.07;;;16.90;66.60;;;;;;5525803;25;20482;-57
2024/04/26 11:13:23;;;;;;;11.77;8.53;;;17.20;65.30;;;;;;5526132;25;20563;-57
2024/04/26 11:15:52;;;;;;;8.53;6.23;;;17.50;64.10;;;;;;5525607;25;20529;-55
2024/04/26 11:18:24;;;;;;;8.83;6.73;;;17.60;63.80;;;;;;5526516;25;20442;-56
2024/04/26 11:20:52;;;;;;;7.40;6.63;;;18.00;63.40;;;;;;5526376;25;20446;-55
2024/04/26 11:23:21;;;;;;;7.13;6.30;;;18.30;62.10;;;;;;5526666;25;20442;-55
2024/04/26 11:25:50;;;;;;;12.03;7.80;;;18.40;60.90;;;;;;5526382;25;20458;-55
2024/04/26 11:28:18;;;;;;;18.13;8.27;;;18.60;60.10;;;;;;5526488;25;20567;-55
2024/04/26 11:30:47;;;;;;;20.93;8.77;;;18.60;59.90;;;;;;5526244;25;20983;-55
2024/04/26 11:33:15;;;;;;;34.87;11.30;;;18.60;59.10;;;;;;5526281;25;20473;-54
2024/04/26 11:35:46;;;;;;;11.13;7.63;;;18.60;59.10;;;;;;5526016;25;20450;-55
2024/04/26 11:38:14;;;;;;;7.83;6.80;;;18.70;59.30;;;;;;5526167;25;20984;-55
2024/04/26 11:40:45;;;;;;;11.37;7.07;;;18.90;59.50;;;;;;5525953;25;20795;-55
2024/04/26 11:43:15;;;;;;;7.67;6.87;;;19.10;58.90;;;;;;5525962;25;20473;-55
2024/04/26 11:45:43;;;;;;;7.43;6.27;;;19.20;57.70;;;;;;5526128;25;20555;-56
2024/04/26 11:48:11;;;;;;;10.50;7.07;;;19.10;58.30;;;;;;5526128;25;20450;-55
2024/04/26 11:50:40;;;;;;;11.00;7.97;;;19.20;58.10;;;;;;5526036;25;20453;-55
2024/04/26 11:53:11;;;;;;;12.17;8.20;;;19.20;57.40;;;;;;5525720;25;20474;-55
2024/04/26 11:55:40;;;;;;;8.93;6.73;;;19.20;57.90;;;;;;5526252;25;20535;-54
2024/04/26 11:58:09;;;;;;;8.27;7.57;;;19.00;57.20;;;;;;5525757;25;20501;-55
2024/04/26 12:00:37;;;;;;;8.67;7.43;;;19.00;57.50;;;;;;5525493;25;20551;-55
2024/04/26 12:03:07;;;;;;;8.63;7.63;;;19.00;57.70;;;;;;5525437;25;21042;-54
2024/04/26 12:05:38;;;;;;;8.20;7.40;;;19.00;57.60;;;;;;5527143;25;20446;-54
2024/04/26 12:08:07;;;;;;;9.63;8.23;;;19.00;57.80;;;;;;5528978;25;20566;-56
2024/04/26 12:10:38;;;;;;;9.13;7.40;;;19.00;58.20;;;;;;5529302;25;20875;-55
2024/04/26 12:13:06;;;;;;;10.73;7.50;;;19.00;58.10;;;;;;5529259;25;20583;-56
2024/04/26 12:15:35;;;;;;;10.80;8.23;;;19.10;58.10;;;;;;5529436;25;21003;-55
2024/04/26 12:18:05;;;;;;;8.20;7.40;;;19.30;58.20;;;;;;5528770;25;20457;-55
2024/04/26 12:20:34;;;;;;;9.73;8.07;;;19.40;58.10;;;;;;5529136;25;20445;-55
2024/04/26 12:23:02;;;;;;;10.30;7.10;;;19.50;57.30;;;;;;5528450;25;21027;-55
2024/04/26 12:25:32;;;;;;;11.00;7.10;;;19.50;57.00;;;;;;5529083;25;20523;-55
2024/04/26 12:28:05;;;;;;;9.43;6.70;;;19.40;57.00;;;;;;5529014;25;20567;-54
2024/04/26 12:30:33;;;;;;;11.60;8.20;;;19.40;57.20;;;;;;5528880;25;20847;-55
2024/04/26 12:33:02;;;;;;;9.53;7.70;;;19.40;57.00;;;;;;5528343;25;20466;-55
2024/04/26 12:35:31;;;;;;;8.57;6.93;;;19.30;56.90;;;;;;5529066;25;20450;-55
2024/04/26 12:38:00;;;;;;;7.93;7.13;;;19.30;57.40;;;;;;5528935;25;20554;-55
2024/04/26 12:40:29;;;;;;;8.83;7.90;;;19.30;57.50;;;;;;5528532;25;20489;-55
2024/04/26 12:42:58;;;;;;;17.73;9.13;;;19.40;57.10;;;;;;5528422;25;20461;-55
2024/04/26 12:45:29;;;;;;;11.87;9.23;;;19.60;57.30;;;;;;5529151;25;21011;-55
2024/04/26 12:47:58;;;;;;;15.53;8.87;;;20.00;56.10;;;;;;5528512;25;20823;-54
2024/04/26 12:50:26;;;;;;;10.70;7.63;;;20.70;55.30;;;;;;5528705;25;20461;-55
2024/04/26 12:52:54;;;;;;;9.87;7.10;;;21.90;53.10;;;;;;5528552;25;20582;-55